Terminal Aerodrome Forecast
Issued by NWS Pendleton, OR

Home | Current Version | Previous Version | Text Only | Print | Product List | Glossary On
Versions: 1 2 3 4 5 6 7 8 9 10 11 12 13 14 15 16 17 18 19 20 21 22 23 24 25 26 27
000
FTUS46 KPDT 231700
TAFPDT
TAF
KPDT 231735Z 2318/2418 20009KT P6SM BKN050
     FM232000 22010G16KT P6SM SCT080 BKN100
     FM232300 25018G27KT P6SM -SHRA SCT035 BKN050
     FM240900 25007KT P6SM VCSH SCT015 BKN030 OVC040
     FM241200 23003KT 5SM BR BKN025 OVC035
     FM241500 15004KT P6SM BKN030 OVC040=

USA.gov is the U.S. government's official web portal to all federal, state and local government web resources and services.